EZY68GL EGGP-EGNS
Flight info
| Callsign | EZY68GL |
|---|---|
| Flight time | 0h 21m |
| Altitude | 16000 |
| Route | WAL M146 LUSOD IOM |
| Aircraft | A320/M-SDE3FGHIRWY/LB1 |
Departure
| Time | 2026-04-24 14:18 |
|---|---|
| Airport | Liverpool John Lennon Airport (EGGP) |
Arrival
| Time | 2026-04-24 14:40 |
|---|---|
| Airport | Isle of Man Airport (EGNS) |
| Time | Latitude | Longitude | Altitude | Speed | Heading |
|---|---|---|---|---|---|
| 2026-04-24 14:03 | 53.33632 | -2.85190 | 85 ft | 0 kts | 265° |
| 2026-04-24 14:09 | 53.33632 | -2.85187 | 85 ft | 2 kts | 265° |
| 2026-04-24 14:10 | 53.33634 | -2.85145 | 87 ft | 4 kts | 265° |
| 2026-04-24 14:10 | 53.33635 | -2.85109 | 88 ft | 3 kts | 265° |
| 2026-04-24 14:10 | 53.33640 | -2.85076 | 89 ft | 4 kts | 200° |
| 2026-04-24 14:10 | 53.33663 | -2.85075 | 89 ft | 4 kts | 175° |
| 2026-04-24 14:11 | 53.33669 | -2.85076 | 89 ft | 0 kts | 175° |
| 2026-04-24 14:15 | 53.33662 | -2.85075 | 89 ft | 5 kts | 175° |
| 2026-04-24 14:15 | 53.33604 | -2.85067 | 85 ft | 10 kts | 175° |
| 2026-04-24 14:15 | 53.33530 | -2.85082 | 88 ft | 12 kts | 227° |
| 2026-04-24 14:15 | 53.33517 | -2.85251 | 86 ft | 19 kts | 266° |
| 2026-04-24 14:16 | 53.33504 | -2.85502 | 84 ft | 23 kts | 266° |
| 2026-04-24 14:16 | 53.33492 | -2.85781 | 86 ft | 25 kts | 265° |
| 2026-04-24 14:16 | 53.33478 | -2.86087 | 84 ft | 28 kts | 265° |
| 2026-04-24 14:17 | 53.33433 | -2.86689 | 70 ft | 18 kts | 230° |
| 2026-04-24 14:17 | 53.33320 | -2.86698 | 74 ft | 19 kts | 141° |
| 2026-04-24 14:17 | 53.33314 | -2.86053 | 75 ft | 72 kts | 85° |
| 2026-04-24 14:18 | 53.33371 | -2.84834 | 81 ft | 135 kts | 85° |
| 2026-04-24 14:18 | 53.33456 | -2.83043 | 332 ft | 162 kts | 86° |
| 2026-04-24 14:18 | 53.33549 | -2.81202 | 1127 ft | 157 kts | 88° |
| 2026-04-24 14:18 | 53.33704 | -2.79303 | 1530 ft | 176 kts | 78° |
| 2026-04-24 14:19 | 53.33995 | -2.77939 | 1829 ft | 192 kts | 67° |
| 2026-04-24 14:19 | 53.35167 | -2.75370 | 2403 ft | 230 kts | 41° |
| 2026-04-24 14:19 | 53.36624 | -2.73990 | 3111 ft | 255 kts | 21° |
| 2026-04-24 14:19 | 53.38429 | -2.73594 | 3934 ft | 268 kts | 358° |
| 2026-04-24 14:20 | 53.40225 | -2.74488 | 4941 ft | 274 kts | 330° |
| 2026-04-24 14:20 | 53.41646 | -2.76615 | 5976 ft | 278 kts | 306° |
| 2026-04-24 14:20 | 53.42574 | -2.79482 | 6955 ft | 282 kts | 295° |
| 2026-04-24 14:20 | 53.43411 | -2.82484 | 7950 ft | 285 kts | 294° |
| 2026-04-24 14:21 | 53.44240 | -2.85511 | 8953 ft | 287 kts | 294° |
| 2026-04-24 14:21 | 53.45073 | -2.88577 | 9969 ft | 289 kts | 294° |
| 2026-04-24 14:21 | 53.45916 | -2.91687 | 10680 ft | 302 kts | 294° |
| 2026-04-24 14:21 | 53.46823 | -2.95025 | 11023 ft | 326 kts | 294° |
| 2026-04-24 14:22 | 53.47799 | -2.98599 | 11450 ft | 344 kts | 294° |
| 2026-04-24 14:22 | 53.48811 | -3.02291 | 12192 ft | 351 kts | 294° |
| 2026-04-24 14:22 | 53.50875 | -3.09828 | 13829 ft | 359 kts | 294° |
| 2026-04-24 14:23 | 53.51924 | -3.13673 | 14521 ft | 365 kts | 294° |
| 2026-04-24 14:23 | 53.52986 | -3.17586 | 15203 ft | 370 kts | 294° |
| 2026-04-24 14:23 | 53.54056 | -3.21541 | 15895 ft | 374 kts | 294° |
| 2026-04-24 14:23 | 53.55141 | -3.25556 | 16226 ft | 379 kts | 294° |
| 2026-04-24 14:24 | 53.56234 | -3.29608 | 16315 ft | 388 kts | 294° |
| 2026-04-24 14:24 | 53.57372 | -3.33834 | 16325 ft | 402 kts | 294° |
| 2026-04-24 14:24 | 53.58529 | -3.38135 | 16321 ft | 404 kts | 294° |
| 2026-04-24 14:24 | 53.59692 | -3.42461 | 16319 ft | 406 kts | 294° |
| 2026-04-24 14:25 | 53.60461 | -3.45325 | 16319 ft | 406 kts | 294° |
| 2026-04-24 14:25 | 53.62016 | -3.51130 | 16314 ft | 407 kts | 294° |
| 2026-04-24 14:25 | 53.63176 | -3.55480 | 16308 ft | 407 kts | 294° |
| 2026-04-24 14:25 | 53.64337 | -3.59838 | 16308 ft | 407 kts | 294° |
| 2026-04-24 14:26 | 53.65684 | -3.63952 | 16304 ft | 405 kts | 304° |
| 2026-04-24 14:26 | 53.67289 | -3.67795 | 16300 ft | 389 kts | 305° |
| 2026-04-24 14:26 | 53.68843 | -3.71496 | 16302 ft | 385 kts | 305° |
| 2026-04-24 14:26 | 53.70358 | -3.75109 | 16298 ft | 381 kts | 305° |
| 2026-04-24 14:27 | 53.71888 | -3.78761 | 16299 ft | 380 kts | 305° |
| 2026-04-24 14:27 | 53.73409 | -3.82407 | 16299 ft | 380 kts | 305° |
| 2026-04-24 14:27 | 53.74927 | -3.86065 | 16299 ft | 380 kts | 304° |
| 2026-04-24 14:27 | 53.76440 | -3.89724 | 16298 ft | 380 kts | 304° |
| 2026-04-24 14:28 | 53.77951 | -3.93383 | 16299 ft | 379 kts | 304° |
| 2026-04-24 14:28 | 53.79458 | -3.97037 | 16299 ft | 379 kts | 304° |
| 2026-04-24 14:28 | 53.80963 | -4.00687 | 16296 ft | 378 kts | 304° |
| 2026-04-24 14:28 | 53.82468 | -4.04337 | 16292 ft | 379 kts | 304° |
| 2026-04-24 14:29 | 53.83975 | -4.07993 | 16299 ft | 378 kts | 304° |
| 2026-04-24 14:29 | 53.85480 | -4.11649 | 16303 ft | 378 kts | 304° |
| 2026-04-24 14:29 | 53.86982 | -4.15306 | 16303 ft | 378 kts | 304° |
| 2026-04-24 14:29 | 53.88485 | -4.18964 | 16306 ft | 378 kts | 304° |
| 2026-04-24 14:30 | 53.89480 | -4.21392 | 16298 ft | 379 kts | 305° |
| 2026-04-24 14:30 | 53.91494 | -4.26317 | 16279 ft | 380 kts | 304° |
| 2026-04-24 14:30 | 53.93001 | -4.30015 | 16283 ft | 381 kts | 304° |
| 2026-04-24 14:30 | 53.94378 | -4.33776 | 16300 ft | 367 kts | 297° |
| 2026-04-24 14:31 | 53.95503 | -4.37553 | 16302 ft | 350 kts | 296° |
| 2026-04-24 14:31 | 53.96559 | -4.41174 | 16301 ft | 334 kts | 296° |
| 2026-04-24 14:31 | 53.97552 | -4.44614 | 15809 ft | 322 kts | 296° |
| 2026-04-24 14:31 | 53.98557 | -4.48103 | 14612 ft | 335 kts | 296° |
| 2026-04-24 14:32 | 53.99603 | -4.51729 | 13252 ft | 347 kts | 296° |
| 2026-04-24 14:32 | 54.00684 | -4.55470 | 11726 ft | 358 kts | 296° |
| 2026-04-24 14:32 | 54.01794 | -4.59320 | 10155 ft | 367 kts | 295° |
| 2026-04-24 14:32 | 54.02528 | -4.63475 | 8453 ft | 370 kts | 275° |
| 2026-04-24 14:33 | 54.02417 | -4.67833 | 6893 ft | 368 kts | 260° |
| 2026-04-24 14:33 | 54.02030 | -4.72123 | 5389 ft | 364 kts | 259° |
| 2026-04-24 14:33 | 54.01639 | -4.76323 | 4154 ft | 354 kts | 259° |
| 2026-04-24 14:33 | 54.01273 | -4.80294 | 3635 ft | 325 kts | 259° |
| 2026-04-24 14:34 | 54.00945 | -4.83909 | 3321 ft | 296 kts | 259° |
| 2026-04-24 14:34 | 54.00651 | -4.87199 | 3144 ft | 268 kts | 259° |
| 2026-04-24 14:34 | 54.00395 | -4.90174 | 3024 ft | 242 kts | 259° |
| 2026-04-24 14:34 | 54.00387 | -4.92868 | 2970 ft | 219 kts | 285° |
| 2026-04-24 14:35 | 54.01191 | -4.95041 | 2990 ft | 221 kts | 321° |
| 2026-04-24 14:35 | 54.02562 | -4.96110 | 2996 ft | 219 kts | 354° |
| 2026-04-24 14:35 | 54.04047 | -4.95857 | 2985 ft | 214 kts | 26° |
| 2026-04-24 14:35 | 54.05226 | -4.94414 | 2988 ft | 209 kts | 55° |
| 2026-04-24 14:36 | 54.05824 | -4.92226 | 2987 ft | 204 kts | 84° |
| 2026-04-24 14:36 | 54.06032 | -4.89842 | 2985 ft | 204 kts | 84° |
| 2026-04-24 14:36 | 54.06238 | -4.87479 | 2984 ft | 196 kts | 85° |
| 2026-04-24 14:36 | 54.06424 | -4.85226 | 2928 ft | 190 kts | 84° |
| 2026-04-24 14:37 | 54.06602 | -4.83011 | 2701 ft | 189 kts | 84° |
| 2026-04-24 14:37 | 54.06780 | -4.80790 | 2427 ft | 190 kts | 85° |
| 2026-04-24 14:37 | 54.06958 | -4.78556 | 2143 ft | 191 kts | 84° |
| 2026-04-24 14:37 | 54.07109 | -4.76375 | 1901 ft | 182 kts | 89° |
| 2026-04-24 14:38 | 54.07072 | -4.74298 | 1671 ft | 170 kts | 94° |
| 2026-04-24 14:38 | 54.07091 | -4.72343 | 1445 ft | 160 kts | 86° |
| 2026-04-24 14:38 | 54.07277 | -4.70514 | 1142 ft | 154 kts | 77° |
| 2026-04-24 14:38 | 54.07535 | -4.68795 | 884 ft | 143 kts | 78° |
| 2026-04-24 14:39 | 54.07732 | -4.67193 | 650 ft | 133 kts | 82° |
| 2026-04-24 14:39 | 54.07913 | -4.65679 | 388 ft | 127 kts | 79° |
| 2026-04-24 14:39 | 54.08091 | -4.64229 | 169 ft | 123 kts | 76° |
| 2026-04-24 14:39 | 54.08273 | -4.62835 | 45 ft | 110 kts | 78° |
| 2026-04-24 14:40 | 54.08365 | -4.62092 | 38 ft | 79 kts | 78° |
| 2026-04-24 14:40 | 54.08447 | -4.61442 | 41 ft | 17 kts | 77° |
| 2026-04-24 14:40 | 54.08498 | -4.61433 | 40 ft | 11 kts | 336° |
| 2026-04-24 14:40 | 54.08540 | -4.61597 | 42 ft | 13 kts | 273° |
| 2026-04-24 14:41 | 54.08548 | -4.61750 | 42 ft | 15 kts | 276° |
| 2026-04-24 14:41 | 54.08545 | -4.61944 | 45 ft | 18 kts | 258° |
| 2026-04-24 14:41 | 54.08516 | -4.62177 | 48 ft | 22 kts | 257° |
| 2026-04-24 14:41 | 54.08483 | -4.62449 | 49 ft | 24 kts | 258° |
| 2026-04-24 14:42 | 54.08444 | -4.62749 | 43 ft | 28 kts | 258° |
| 2026-04-24 14:42 | 54.08420 | -4.62955 | 41 ft | 7 kts | 273° |
| 2026-04-24 14:42 | 54.08472 | -4.63000 | 43 ft | 10 kts | 349° |
| 2026-04-24 14:42 | 54.08534 | -4.63021 | 45 ft | 9 kts | 348° |
| 2026-04-24 14:43 | 54.08588 | -4.63058 | 44 ft | 9 kts | 322° |
| 2026-04-24 14:43 | 54.08632 | -4.63139 | 45 ft | 9 kts | 313° |
| 2026-04-24 14:43 | 54.08661 | -4.63189 | 45 ft | 0 kts | 316° |
| 2026-04-24 14:44 | 54.08697 | -4.63253 | 45 ft | 10 kts | 313° |
| 2026-04-24 14:45 | 54.08698 | -4.63325 | 45 ft | 2 kts | 230° |
| 2026-04-24 14:45 | 54.08692 | -4.63334 | 45 ft | 1 kts | 224° |
| 2026-04-24 14:45 | 54.08689 | -4.63340 | 45 ft | 0 kts | 225° |